Time;durP1;ratioP1;P1;durP2;ratioP2;P2;SDS_P1;SDS_P2;PMS_P1;PMS_P2;Temp;Humidity;BMP_temperature;BMP_pressure;BME280_temperature;BME280_humidity;BME280_pressure;Samples;Min_cycle;Max_cycle;Signal;HPM_P1;HPM_P2
2021/07/02 00:00:16;;;;;;;8.25;4.70;;;;;;;;;;4995114;28;20054;-67
2021/07/02 00:02:44;;;;;;;6.57;4.40;;;;;;;;;;4994934;28;20050;-67
2021/07/02 00:05:11;;;;;;;7.80;4.45;;;;;;;;;;4994846;28;20120;-68
2021/07/02 00:07:38;;;;;;;7.45;5.03;;;;;;;;;;4994839;28;20093;-68
2021/07/02 00:10:05;;;;;;;6.82;4.75;;;;;;;;;;4994716;28;20078;-68
2021/07/02 00:12:32;;;;;;;5.97;4.35;;;;;;;;;;4994868;28;20051;-68
2021/07/02 00:14:59;;;;;;;8.20;4.95;;;;;;;;;;4994663;28;20129;-68
2021/07/02 00:17:26;;;;;;;4.78;3.95;;;;;;;;;;4994903;28;20136;-68
2021/07/02 00:19:52;;;;;;;6.45;4.43;;;;;;;;;;4994788;28;20093;-68
2021/07/02 00:22:19;;;;;;;6.07;4.70;;;;;;;;;;4994451;28;20086;-69
2021/07/02 00:24:45;;;;;;;8.40;4.68;;;;;;;;;;4994766;28;20101;-68
2021/07/02 00:27:12;;;;;;;8.10;5.10;;;;;;;;;;4994494;28;20153;-68
2021/07/02 00:29:38;;;;;;;6.88;4.90;;;;;;;;;;4994708;28;20056;-68
2021/07/02 00:32:05;;;;;;;5.88;4.20;;;;;;;;;;4993137;28;20077;-68
2021/07/02 00:34:32;;;;;;;16.40;6.10;;;;;;;;;;4994438;28;20054;-68
2021/07/02 00:36:59;;;;;;;6.07;4.90;;;;;;;;;;4994429;28;20085;-68
2021/07/02 00:39:25;;;;;;;6.65;5.13;;;;;;;;;;4994624;28;20104;-68
2021/07/02 00:41:52;;;;;;;7.78;5.05;;;;;;;;;;4993794;28;20596;-68
2021/07/02 00:44:36;;;;;;;6.82;4.30;;;;;;;;;;4994342;28;20137;-68
2021/07/02 00:47:03;;;;;;;7.00;4.70;;;;;;;;;;4994066;28;20062;-68
2021/07/02 00:49:30;;;;;;;6.90;4.85;;;;;;;;;;4988623;28;20046;-68
2021/07/02 00:51:56;;;;;;;6.05;5.03;;;;;;;;;;4993862;28;20105;-68
2021/07/02 00:54:23;;;;;;;6.68;4.10;;;;;;;;;;4992904;28;20089;-69
2021/07/02 00:56:49;;;;;;;6.93;4.90;;;;;;;;;;4993996;28;20471;-68
2021/07/02 00:59:16;;;;;;;7.43;4.47;;;;;;;;;;4992781;28;20092;-68
2021/07/02 01:01:42;;;;;;;8.13;4.50;;;;;;;;;;4993794;28;20086;-68
2021/07/02 01:04:09;;;;;;;6.03;4.32;;;;;;;;;;4993738;28;20065;-68
2021/07/02 01:06:36;;;;;;;6.43;4.43;;;;;;;;;;4993760;28;20057;-68
2021/07/02 01:09:04;;;;;;;5.65;4.07;;;;;;;;;;4993875;28;20066;-68
2021/07/02 01:11:32;;;;;;;6.30;4.13;;;;;;;;;;4993817;28;20078;-68
2021/07/02 01:13:58;;;;;;;6.38;4.53;;;;;;;;;;4992400;28;20133;-68
2021/07/02 01:16:25;;;;;;;5.72;4.50;;;;;;;;;;4993627;28;20129;-68
2021/07/02 01:18:52;;;;;;;6.00;4.25;;;;;;;;;;4992369;28;20420;-68
2021/07/02 01:21:22;;;;;;;6.35;4.40;;;;;;;;;;4993465;28;20591;-68
2021/07/02 01:23:49;;;;;;;6.32;4.60;;;;;;;;;;4993435;28;20077;-68
2021/07/02 01:26:16;;;;;;;5.85;3.97;;;;;;;;;;4993391;28;20568;-68
2021/07/02 01:28:43;;;;;;;6.18;4.20;;;;;;;;;;4993557;28;20133;-68
2021/07/02 01:31:09;;;;;;;9.95;4.55;;;;;;;;;;4992038;28;20085;-68
2021/07/02 01:33:36;;;;;;;5.85;4.35;;;;;;;;;;4993414;28;20064;-68
2021/07/02 01:36:05;;;;;;;5.10;3.90;;;;;;;;;;4993153;28;20088;-67
2021/07/02 01:38:33;;;;;;;6.90;4.47;;;;;;;;;;4993358;28;20089;-68
2021/07/02 01:41:00;;;;;;;6.90;4.38;;;;;;;;;;4993139;28;20085;-68
2021/07/02 01:43:27;;;;;;;9.35;4.93;;;;;;;;;;4992715;28;20137;-67
2021/07/02 01:45:54;;;;;;;6.47;4.32;;;;;;;;;;4993177;28;20082;-68
2021/07/02 01:48:20;;;;;;;7.22;4.32;;;;;;;;;;4992934;28;20054;-68
2021/07/02 01:50:47;;;;;;;6.93;4.57;;;;;;;;;;4993061;28;20074;-67
2021/07/02 01:53:14;;;;;;;7.95;4.80;;;;;;;;;;4992809;28;20105;-68
2021/07/02 01:55:40;;;;;;;6.00;4.75;;;;;;;;;;4992456;28;20520;-68
2021/07/02 01:58:07;;;;;;;6.68;4.72;;;;;;;;;;4992791;28;20608;-67
2021/07/02 02:00:33;;;;;;;6.72;4.50;;;;;;;;;;4992761;28;20105;-68
2021/07/02 02:03:00;;;;;;;6.88;3.92;;;;;;;;;;4992679;28;20057;-68
2021/07/02 02:05:26;;;;;;;5.47;4.40;;;;;;;;;;4992820;28;20070;-68
2021/07/02 02:07:53;;;;;;;8.82;4.05;;;;;;;;;;4992689;28;20480;-67
2021/07/02 02:10:19;;;;;;;7.50;4.75;;;;;;;;;;4992572;28;20058;-67
2021/07/02 02:12:46;;;;;;;6.35;4.55;;;;;;;;;;4992635;28;20089;-68
2021/07/02 02:15:13;;;;;;;6.35;4.97;;;;;;;;;;4992598;28;20046;-68
2021/07/02 02:17:40;;;;;;;6.78;4.68;;;;;;;;;;4992577;28;20081;-68
2021/07/02 02:20:08;;;;;;;6.53;4.70;;;;;;;;;;4992503;28;20074;-67
2021/07/02 02:22:35;;;;;;;8.55;5.00;;;;;;;;;;4992489;28;20050;-68
2021/07/02 02:25:03;;;;;;;6.72;4.85;;;;;;;;;;4992394;28;20058;-68
2021/07/02 02:27:30;;;;;;;7.07;5.32;;;;;;;;;;4992377;28;20058;-68
2021/07/02 02:29:57;;;;;;;6.65;5.10;;;;;;;;;;4992359;28;20129;-68
2021/07/02 02:32:23;;;;;;;7.10;4.45;;;;;;;;;;4992530;28;20050;-68
2021/07/02 02:34:50;;;;;;;8.63;5.10;;;;;;;;;;4992358;28;20097;-68
2021/07/02 02:37:16;;;;;;;6.38;4.53;;;;;;;;;;4992246;28;20493;-67
2021/07/02 02:39:43;;;;;;;7.25;5.07;;;;;;;;;;4992390;28;20081;-68
2021/07/02 02:42:10;;;;;;;8.05;5.13;;;;;;;;;;4992020;28;20561;-68
2021/07/02 02:44:36;;;;;;;8.25;5.30;;;;;;;;;;4992374;28;20085;-68
2021/07/02 02:47:03;;;;;;;6.00;4.78;;;;;;;;;;4992058;28;20469;-68
2021/07/02 02:49:30;;;;;;;7.65;5.15;;;;;;;;;;4992460;28;20455;-68
2021/07/02 02:51:56;;;;;;;8.90;6.60;;;;;;;;;;4990954;28;20499;-68
2021/07/02 02:54:23;;;;;;;5.72;4.63;;;;;;;;;;4992574;28;20137;-68
2021/07/02 02:57:05;;;;;;;9.93;5.10;;;;;;;;;;4995920;28;20077;-68
2021/07/02 02:59:34;;;;;;;7.45;4.97;;;;;;;;;;4996689;28;20084;-68
2021/07/02 03:02:04;;;;;;;8.02;4.53;;;;;;;;;;4995963;28;20050;-68
2021/07/02 03:04:32;;;;;;;10.63;5.47;;;;;;;;;;4996133;28;20089;-68
2021/07/02 03:06:58;;;;;;;7.57;5.32;;;;;;;;;;4995688;28;20073;-68
2021/07/02 03:09:25;;;;;;;9.65;5.25;;;;;;;;;;4996121;28;20145;-68
2021/07/02 03:11:52;;;;;;;8.93;5.63;;;;;;;;;;4995950;28;20096;-68
2021/07/02 03:14:19;;;;;;;11.30;6.43;;;;;;;;;;4996676;28;20105;-68
2021/07/02 03:16:47;;;;;;;8.05;5.35;;;;;;;;;;4995813;28;20154;-68
2021/07/02 03:19:14;;;;;;;8.20;5.55;;;;;;;;;;4995801;28;20489;-68
2021/07/02 03:21:41;;;;;;;10.27;6.13;;;;;;;;;;4995770;28;20141;-68
2021/07/02 03:24:08;;;;;;;7.80;5.53;;;;;;;;;;4995113;28;20082;-68
2021/07/02 03:26:34;;;;;;;9.88;5.30;;;;;;;;;;4994700;28;20081;-68
2021/07/02 03:29:02;;;;;;;6.10;5.00;;;;;;;;;;4995573;28;20050;-68
2021/07/02 03:31:28;;;;;;;8.27;5.60;;;;;;;;;;4995662;28;20085;-68
2021/07/02 03:33:55;;;;;;;7.43;5.43;;;;;;;;;;4996393;28;20052;-67
2021/07/02 03:36:22;;;;;;;7.13;5.10;;;;;;;;;;4995312;28;20133;-68
2021/07/02 03:38:49;;;;;;;7.97;5.40;;;;;;;;;;4995298;28;20484;-68
2021/07/02 03:41:16;;;;;;;7.70;6.40;;;;;;;;;;4994147;28;20145;-68
2021/07/02 03:43:43;;;;;;;8.25;5.63;;;;;;;;;;4995610;28;20473;-68
2021/07/02 03:46:09;;;;;;;8.52;5.43;;;;;;;;;;4994238;28;20132;-68
2021/07/02 03:48:36;;;;;;;8.60;5.82;;;;;;;;;;4995359;28;20050;-67
2021/07/02 03:51:03;;;;;;;8.65;5.28;;;;;;;;;;4994907;28;20527;-68
2021/07/02 03:53:29;;;;;;;9.35;5.50;;;;;;;;;;4995150;28;20082;-68
2021/07/02 03:55:56;;;;;;;6.53;5.70;;;;;;;;;;4994727;28;20081;-68
2021/07/02 03:58:22;;;;;;;8.60;5.65;;;;;;;;;;4995335;28;20470;-68
2021/07/02 04:00:49;;;;;;;7.43;4.97;;;;;;;;;;4995230;28;20085;-68
2021/07/02 04:03:16;;;;;;;9.45;5.88;;;;;;;;;;4995024;28;20416;-68
2021/07/02 04:05:45;;;;;;;8.23;5.03;;;;;;;;;;4994751;28;20478;-68
2021/07/02 04:08:12;;;;;;;9.43;5.82;;;;;;;;;;4994785;28;20062;-68
2021/07/02 04:10:38;;;;;;;12.75;6.07;;;;;;;;;;4995092;28;20109;-68
2021/07/02 04:13:05;;;;;;;8.35;5.43;;;;;;;;;;4994654;28;20486;-68
2021/07/02 04:15:32;;;;;;;8.18;5.80;;;;;;;;;;4994799;28;20410;-68
2021/07/02 04:17:58;;;;;;;10.73;6.07;;;;;;;;;;4994765;28;20054;-67
2021/07/02 04:20:25;;;;;;;10.13;5.47;;;;;;;;;;4994826;28;20050;-68
2021/07/02 04:22:52;;;;;;;7.07;5.32;;;;;;;;;;4994734;28;20054;-68
2021/07/02 04:25:18;;;;;;;6.70;4.90;;;;;;;;;;4994759;28;20442;-68
2021/07/02 04:27:45;;;;;;;6.28;4.82;;;;;;;;;;4994732;28;20081;-68
2021/07/02 04:30:12;;;;;;;7.65;5.32;;;;;;;;;;4994440;28;20062;-68
2021/07/02 04:32:39;;;;;;;8.80;5.22;;;;;;;;;;4994364;28;20047;-68
2021/07/02 04:35:08;;;;;;;7.10;5.20;;;;;;;;;;4994526;28;20524;-68
2021/07/02 04:37:38;;;;;;;7.05;5.57;;;;;;;;;;4994276;28;20528;-68
2021/07/02 04:40:07;;;;;;;8.98;6.03;;;;;;;;;;4993257;28;20421;-68
2021/07/02 04:42:34;;;;;;;8.02;5.50;;;;;;;;;;4993057;28;20086;-68
2021/07/02 04:45:00;;;;;;;6.78;5.57;;;;;;;;;;4994156;28;20162;-68
2021/07/02 04:47:27;;;;;;;8.65;6.32;;;;;;;;;;4994701;28;20046;-68
2021/07/02 04:49:54;;;;;;;8.52;5.75;;;;;;;;;;4994323;28;20050;-68
2021/07/02 04:52:20;;;;;;;7.53;6.05;;;;;;;;;;4993991;28;20136;-68
2021/07/02 04:54:47;;;;;;;7.57;5.15;;;;;;;;;;4994341;28;20078;-68
2021/07/02 04:57:15;;;;;;;8.60;5.95;;;;;;;;;;4993731;28;20485;-68
2021/07/02 04:59:43;;;;;;;8.85;6.05;;;;;;;;;;4994279;28;20089;-68
2021/07/02 05:02:09;;;;;;;8.48;5.45;;;;;;;;;;4993835;28;20089;-68
2021/07/02 05:04:39;;;;;;;7.97;5.57;;;;;;;;;;4994066;28;20054;-68
2021/07/02 05:07:05;;;;;;;8.98;6.82;;;;;;;;;;4993518;28;20625;-68
2021/07/02 05:09:33;;;;;;;10.35;6.47;;;;;;;;;;4993713;28;20779;-68
2021/07/02 05:11:59;;;;;;;8.88;5.68;;;;;;;;;;4992249;28;20090;-68
2021/07/02 05:14:26;;;;;;;10.15;6.25;;;;;;;;;;4993523;28;20481;-68
2021/07/02 05:16:52;;;;;;;8.50;6.45;;;;;;;;;;4992004;28;20085;-68
2021/07/02 05:19:19;;;;;;;14.25;6.80;;;;;;;;;;4993174;28;20097;-68
2021/07/02 05:21:45;;;;;;;8.07;5.03;;;;;;;;;;4993405;28;20089;-68
2021/07/02 05:24:12;;;;;;;7.72;5.50;;;;;;;;;;4992229;28;20105;-68
2021/07/02 05:26:38;;;;;;;7.80;5.78;;;;;;;;;;4993092;28;20077;-68
2021/07/02 05:29:05;;;;;;;8.80;6.00;;;;;;;;;;4993124;28;20074;-68
2021/07/02 05:31:32;;;;;;;10.05;5.78;;;;;;;;;;4993487;28;20050;-68
2021/07/02 05:33:58;;;;;;;9.52;6.32;;;;;;;;;;4993355;28;20081;-68
2021/07/02 05:36:25;;;;;;;8.55;5.63;;;;;;;;;;4993538;28;20133;-68
2021/07/02 05:38:51;;;;;;;9.10;5.97;;;;;;;;;;4993386;28;20090;-68
2021/07/02 05:41:18;;;;;;;11.70;5.97;;;;;;;;;;4993206;28;20050;-68
2021/07/02 05:43:44;;;;;;;7.90;6.18;;;;;;;;;;4992889;28;20108;-68
2021/07/02 05:46:12;;;;;;;9.90;5.78;;;;;;;;;;4992786;28;20061;-68
2021/07/02 05:48:39;;;;;;;7.43;5.55;;;;;;;;;;4991839;28;20050;-68
2021/07/02 05:51:06;;;;;;;7.57;5.88;;;;;;;;;;4992468;28;20138;-68
2021/07/02 05:53:33;;;;;;;10.43;6.45;;;;;;;;;;4992833;28;20054;-68
2021/07/02 05:55:59;;;;;;;9.95;5.65;;;;;;;;;;4992668;28;20051;-68
2021/07/02 05:58:26;;;;;;;9.23;6.60;;;;;;;;;;4992848;28;20077;-68
2021/07/02 06:00:52;;;;;;;9.82;5.82;;;;;;;;;;4992661;28;20109;-68
2021/07/02 06:03:19;;;;;;;8.20;6.20;;;;;;;;;;4992866;28;20490;-67
2021/07/02 06:05:46;;;;;;;8.00;6.32;;;;;;;;;;4992619;28;20394;-68
2021/07/02 06:08:13;;;;;;;8.07;6.30;;;;;;;;;;4991749;28;20109;-68
2021/07/02 06:10:39;;;;;;;10.60;6.88;;;;;;;;;;4992839;28;20098;-68
2021/07/02 06:13:06;;;;;;;7.90;6.00;;;;;;;;;;4992717;28;20047;-68
2021/07/02 06:15:33;;;;;;;7.45;6.13;;;;;;;;;;4992588;28;20065;-68
2021/07/02 06:18:07;;;;;;;10.10;6.22;;;;;;;;;;4992381;28;20082;-68
2021/07/02 06:20:33;;;;;;;9.05;6.35;;;;;;;;;;4992377;28;20086;-68
2021/07/02 06:23:00;;;;;;;7.57;6.00;;;;;;;;;;4992257;28;20572;-67
2021/07/02 06:25:27;;;;;;;11.35;5.70;;;;;;;;;;4992594;28;20108;-68
2021/07/02 06:27:53;;;;;;;13.02;6.93;;;;;;;;;;4991576;28;20086;-68
2021/07/02 06:30:20;;;;;;;9.73;7.65;;;;;;;;;;4990279;28;20092;-67
2021/07/02 06:32:46;;;;;;;7.40;5.50;;;;;;;;;;4990505;28;20054;-67
2021/07/02 06:35:13;;;;;;;10.70;6.55;;;;;;;;;;4990326;28;20090;-67
2021/07/02 06:37:47;;;;;;;11.90;7.20;;;;;;;;;;4990280;28;20046;-67
2021/07/02 06:40:14;;;;;;;8.93;6.03;;;;;;;;;;4990370;28;20398;-67
2021/07/02 06:42:41;;;;;;;9.38;6.60;;;;;;;;;;4989799;28;20113;-66
2021/07/02 06:45:11;;;;;;;9.52;5.88;;;;;;;;;;4990264;28;20077;-66
2021/07/02 06:47:57;;;;;;;8.82;5.28;;;;;;;;;;4990392;28;20046;-67
2021/07/02 06:50:26;;;;;;;7.63;5.53;;;;;;;;;;4990411;28;20050;-67
2021/07/02 06:52:53;;;;;;;7.85;5.38;;;;;;;;;;4990200;28;20543;-67
2021/07/02 06:55:20;;;;;;;8.75;5.32;;;;;;;;;;4989851;28;20406;-67
2021/07/02 06:57:46;;;;;;;6.55;4.90;;;;;;;;;;4990570;28;20089;-67
2021/07/02 07:00:16;;;;;;;6.78;5.40;;;;;;;;;;4990223;28;20089;-66
2021/07/02 07:02:44;;;;;;;6.05;4.90;;;;;;;;;;4990099;28;20115;-67
2021/07/02 07:05:11;;;;;;;8.82;5.22;;;;;;;;;;4989902;28;20077;-66
2021/07/02 07:07:38;;;;;;;6.30;4.32;;;;;;;;;;4989692;28;20572;-66
2021/07/02 07:10:05;;;;;;;8.10;4.22;;;;;;;;;;4990008;28;20544;-68
2021/07/02 07:12:32;;;;;;;5.53;3.83;;;;;;;;;;4989836;28;20540;-66
2021/07/02 07:14:58;;;;;;;5.22;4.45;;;;;;;;;;4989959;28;20054;-66
2021/07/02 07:17:25;;;;;;;5.65;5.13;;;;;;;;;;4990160;28;20364;-67
2021/07/02 07:19:52;;;;;;;4.55;4.10;;;;;;;;;;4990291;28;20089;-66
2021/07/02 07:22:19;;;;;;;8.20;4.45;;;;;;;;;;4988003;28;20737;-67
2021/07/02 07:24:46;;;;;;;5.07;4.30;;;;;;;;;;4989004;28;20073;-66
2021/07/02 07:27:12;;;;;;;6.10;4.10;;;;;;;;;;4989540;28;20494;-67
2021/07/02 07:29:39;;;;;;;4.72;3.97;;;;;;;;;;4990184;28;20514;-67
2021/07/02 07:32:05;;;;;;;4.65;4.15;;;;;;;;;;4989689;28;20096;-68
2021/07/02 07:34:43;;;;;;;4.65;4.03;;;;;;;;;;4989815;28;20054;-66
2021/07/02 07:37:14;;;;;;;4.78;4.35;;;;;;;;;;4989983;28;20081;-67
2021/07/02 07:39:41;;;;;;;7.50;4.85;;;;;;;;;;4989273;28;20062;-67
2021/07/02 07:42:07;;;;;;;6.97;4.55;;;;;;;;;;4977294;28;20133;-69
2021/07/02 07:44:34;;;;;;;8.43;4.07;;;;;;;;;;4991220;28;20555;-67
2021/07/02 07:47:01;;;;;;;5.95;4.00;;;;;;;;;;4980363;28;20098;-68
2021/07/02 07:49:27;;;;;;;5.28;3.60;;;;;;;;;;4978538;28;20050;-67
2021/07/02 07:54:21;;;;;;;6.35;3.90;;;;;;;;;;4988715;28;20069;-67
2021/07/02 07:56:50;;;;;;;6.68;3.85;;;;;;;;;;4994566;28;20097;-68
2021/07/02 07:59:21;;;;;;;4.80;3.60;;;;;;;;;;4995176;28;20050;-66
2021/07/02 08:01:48;;;;;;;4.55;3.70;;;;;;;;;;4994635;28;20125;-68
2021/07/02 08:04:15;;;;;;;5.20;3.55;;;;;;;;;;4994802;28;20061;-66
2021/07/02 08:06:42;;;;;;;4.10;3.38;;;;;;;;;;4995124;28;20050;-67
2021/07/02 08:09:09;;;;;;;4.28;3.72;;;;;;;;;;4977681;28;20429;-66
2021/07/02 08:11:36;;;;;;;7.93;3.60;;;;;;;;;;4993952;28;20050;-66
2021/07/02 08:14:05;;;;;;;4.50;3.85;;;;;;;;;;4994870;28;20058;-66
2021/07/02 08:16:31;;;;;;;4.60;3.75;;;;;;;;;;4975375;28;20061;-67
2021/07/02 08:18:58;;;;;;;5.65;3.67;;;;;;;;;;4975377;28;20102;-66
2021/07/02 08:21:25;;;;;;;4.95;3.83;;;;;;;;;;4974568;28;20090;-67
2021/07/02 08:23:51;;;;;;;5.57;4.15;;;;;;;;;;4973245;28;20087;-66
2021/07/02 08:26:19;;;;;;;4.50;3.90;;;;;;;;;;4974983;28;20459;-66
2021/07/02 08:31:32;;;;;;;5.55;4.28;;;;;;;;;;4975109;28;20090;-66
2021/07/02 08:33:59;;;;;;;5.45;4.70;;;;;;;;;;4975212;28;20129;-67
2021/07/02 08:36:26;;;;;;;3.85;3.50;;;;;;;;;;4975022;28;20051;-66
2021/07/02 08:38:52;;;;;;;5.28;4.40;;;;;;;;;;4974986;28;20094;-67
2021/07/02 08:41:19;;;;;;;4.72;3.78;;;;;;;;;;4974735;28;20105;-67
2021/07/02 08:43:47;;;;;;;5.00;4.03;;;;;;;;;;4975037;28;20090;-67
2021/07/02 08:46:20;;;;;;;4.97;3.85;;;;;;;;;;4991922;28;20093;-67
2021/07/02 08:48:49;;;;;;;6.43;5.00;;;;;;;;;;4994431;28;20074;-66
2021/07/02 08:51:15;;;;;;;5.97;4.40;;;;;;;;;;4994023;28;20097;-67
2021/07/02 08:53:42;;;;;;;5.50;3.70;;;;;;;;;;4992906;28;20517;-66
2021/07/02 08:56:09;;;;;;;5.07;4.15;;;;;;;;;;4994140;28;20505;-67
2021/07/02 08:58:36;;;;;;;5.22;4.20;;;;;;;;;;4994050;28;20133;-66
2021/07/02 09:01:09;;;;;;;6.05;4.03;;;;;;;;;;4993838;28;20050;-66
2021/07/02 09:03:38;;;;;;;4.88;4.03;;;;;;;;;;4993054;28;20050;-66
2021/07/02 09:06:13;;;;;;;6.45;4.15;;;;;;;;;;4993683;28;20070;-66
2021/07/02 09:08:56;;;;;;;6.30;4.22;;;;;;;;;;4994299;28;20097;-67
2021/07/02 09:11:36;;;;;;;5.85;4.35;;;;;;;;;;4993079;28;20522;-66
2021/07/02 09:14:04;;;;;;;4.75;4.25;;;;;;;;;;4994037;28;20425;-67
2021/07/02 09:16:39;;;;;;;5.45;4.32;;;;;;;;;;4993707;28;20060;-66
2021/07/02 09:19:29;;;;;;;6.40;4.72;;;;;;;;;;4993616;28;20129;-66
2021/07/02 09:22:17;;;;;;;6.10;4.03;;;;;;;;;;4993954;28;20088;-67
2021/07/02 09:24:46;;;;;;;8.82;3.80;;;;;;;;;;5016647;23;20077;-69
2021/07/02 09:27:25;;;;;;;7.28;4.55;;;;;;;;;;4993675;28;20090;-68
2021/07/02 09:30:12;;;;;;;7.05;4.50;;;;;;;;;;4994084;28;20085;-68
2021/07/02 09:32:51;;;;;;;4.60;4.10;;;;;;;;;;4993723;28;20085;-68
2021/07/02 09:35:19;;;;;;;6.32;4.47;;;;;;;;;;4973797;28;20093;-68
2021/07/02 09:37:50;;;;;;;5.80;4.38;;;;;;;;;;4974022;28;20476;-68
2021/07/02 09:40:28;;;;;;;5.00;4.28;;;;;;;;;;4973974;28;20058;-67
2021/07/02 09:43:12;;;;;;;5.90;4.72;;;;;;;;;;4973705;28;20368;-69
2021/07/02 09:45:46;;;;;;;6.88;4.80;;;;;;;;;;4973657;28;20086;-68
2021/07/02 09:48:13;;;;;;;5.35;4.00;;;;;;;;;;4973717;28;20517;-67
2021/07/02 09:50:52;;;;;;;5.75;4.13;;;;;;;;;;4973816;28;20462;-69
2021/07/02 09:53:21;;;;;;;4.63;3.97;;;;;;;;;;4973706;28;20097;-68
2021/07/02 09:55:51;;;;;;;8.98;5.07;;;;;;;;;;4972368;28;20082;-67
2021/07/02 09:58:20;;;;;;;5.10;4.50;;;;;;;;;;4973524;28;20050;-68
2021/07/02 10:00:49;;;;;;;5.45;4.50;;;;;;;;;;4972456;28;20090;-68
2021/07/02 10:03:17;;;;;;;6.38;4.40;;;;;;;;;;4973455;28;20054;-68
2021/07/02 10:05:45;;;;;;;4.50;4.07;;;;;;;;;;4973233;28;20085;-68
2021/07/02 10:08:12;;;;;;;6.32;4.72;;;;;;;;;;4973104;28;20046;-68
2021/07/02 10:10:39;;;;;;;8.55;4.85;;;;;;;;;;4972155;28;20051;-68
2021/07/02 10:13:06;;;;;;;5.97;4.25;;;;;;;;;;4973147;28;20101;-68
2021/07/02 10:15:33;;;;;;;5.05;4.40;;;;;;;;;;4973113;28;20065;-69
2021/07/02 10:18:01;;;;;;;8.95;5.07;;;;;;;;;;4972679;28;20502;-68
2021/07/02 10:20:29;;;;;;;9.77;4.95;;;;;;;;;;4973567;28;20060;-69
2021/07/02 10:22:59;;;;;;;4.97;4.47;;;;;;;;;;4972417;28;20097;-69
2021/07/02 10:25:27;;;;;;;5.72;4.20;;;;;;;;;;4964043;28;20530;-69
2021/07/02 10:27:54;;;;;;;5.32;4.10;;;;;;;;;;4964890;28;20110;-70
2021/07/02 10:30:21;;;;;;;5.10;4.38;;;;;;;;;;4958785;28;20430;-71
2021/07/02 10:32:50;;;;;;;6.72;5.18;;;;;;;;;;4957414;28;20055;-73
2021/07/02 10:35:18;;;;;;;4.90;4.35;;;;;;;;;;4962471;28;20055;-67
2021/07/02 10:37:52;;;;;;;5.65;4.25;;;;;;;;;;4962061;28;20070;-71
2021/07/02 10:40:34;;;;;;;5.60;4.13;;;;;;;;;;4960302;28;20082;-72
2021/07/02 10:43:15;;;;;;;4.43;3.80;;;;;;;;;;4960698;28;20074;-69
2021/07/02 10:46:06;;;;;;;4.53;3.50;;;;;;;;;;4962385;28;20109;-69
2021/07/02 10:49:01;;;;;;;4.93;3.50;;;;;;;;;;4962167;28;20051;-68
2021/07/02 10:51:39;;;;;;;5.50;3.83;;;;;;;;;;4978987;28;20077;-69
2021/07/02 10:54:22;;;;;;;4.88;4.15;;;;;;;;;;4963515;28;20047;-72
2021/07/02 10:56:55;;;;;;;6.43;4.28;;;;;;;;;;4966599;28;20047;-76
2021/07/02 10:59:37;;;;;;;5.80;3.72;;;;;;;;;;4961841;28;20050;-68
2021/07/02 11:02:08;;;;;;;5.03;4.50;;;;;;;;;;4974527;28;20058;-70
2021/07/02 11:04:57;;;;;;;4.70;3.85;;;;;;;;;;4960236;28;20485;-69
2021/07/02 11:07:27;;;;;;;6.00;4.30;;;;;;;;;;4960872;28;20043;-70
2021/07/02 11:09:58;;;;;;;5.50;4.30;;;;;;;;;;4958922;28;20051;-69
2021/07/02 11:12:29;;;;;;;3.67;3.38;;;;;;;;;;4960015;28;20105;-71
2021/07/02 11:14:58;;;;;;;4.50;3.80;;;;;;;;;;4959101;28;20090;-70
2021/07/02 11:17:41;;;;;;;4.53;3.97;;;;;;;;;;4962819;28;20053;-71
2021/07/02 11:20:17;;;;;;;4.93;4.00;;;;;;;;;;4964068;28;20102;-71
2021/07/02 11:22:49;;;;;;;5.07;4.47;;;;;;;;;;4963421;28;20086;-71
2021/07/02 11:25:29;;;;;;;4.53;4.07;;;;;;;;;;4961865;28;20125;-70
2021/07/02 11:28:02;;;;;;;4.75;4.20;;;;;;;;;;4968514;28;20600;-71
2021/07/02 11:30:36;;;;;;;;;;;;;;;;;;4962282;28;20047;-71
2021/07/02 11:33:04;;;;;;;5.03;3.78;;;;;;;;;;4959410;28;19977;-71
2021/07/02 11:35:33;;;;;;;4.60;3.97;;;;;;;;;;4968179;28;20054;-70
2021/07/02 11:38:02;;;;;;;4.70;3.95;;;;;;;;;;4962156;28;20051;-70
2021/07/02 11:40:36;;;;;;;5.47;4.28;;;;;;;;;;4961660;28;20109;-71
2021/07/02 11:43:20;;;;;;;5.13;4.60;;;;;;;;;;4963630;28;20046;-70
2021/07/02 11:45:52;;;;;;;5.68;4.25;;;;;;;;;;4955733;28;20078;-72
2021/07/02 11:48:24;;;;;;;5.35;4.35;;;;;;;;;;4963471;28;20113;-72
2021/07/02 11:50:51;;;;;;;;;;;;;;;;;;4963878;28;20051;-74
2021/07/02 11:53:39;;;;;;;6.43;4.43;;;;;;;;;;4961392;28;20337;-72
2021/07/02 11:56:23;;;;;;;5.28;4.43;;;;;;;;;;4964725;28;20090;-72
2021/07/02 11:58:57;;;;;;;5.03;3.70;;;;;;;;;;4963781;28;20077;-72
2021/07/02 12:01:45;;;;;;;4.30;3.90;;;;;;;;;;4977261;28;20106;-75
2021/07/02 12:04:31;;;;;;;3.95;3.00;;;;;;;;;;4976926;28;20102;-72
2021/07/02 12:07:05;;;;;;;4.68;3.70;;;;;;;;;;4980892;28;20066;-74
2021/07/02 12:09:42;;;;;;;5.68;3.80;;;;;;;;;;4978674;28;20454;-72
2021/07/02 12:12:09;;;;;;;5.68;3.83;;;;;;;;;;4980479;28;20396;-74
2021/07/02 12:14:39;;;;;;;4.53;3.58;;;;;;;;;;4957732;28;20078;-73
2021/07/02 12:17:05;;;;;;;6.93;4.25;;;;;;;;;;4978803;28;20047;-72
2021/07/02 12:19:35;;;;;;;4.10;3.70;;;;;;;;;;4961433;28;20078;-70
2021/07/02 12:22:05;;;;;;;4.80;3.83;;;;;;;;;;4962904;28;20046;-67
2021/07/02 12:24:43;;;;;;;4.20;3.80;;;;;;;;;;4961819;28;20047;-70
2021/07/02 12:27:12;;;;;;;5.65;4.07;;;;;;;;;;4962726;28;20051;-74
2021/07/02 12:29:40;;;;;;;4.15;3.75;;;;;;;;;;4970895;28;20043;-75
2021/07/02 12:32:13;;;;;;;4.50;3.75;;;;;;;;;;4966771;28;20097;-74
2021/07/02 12:34:43;;;;;;;4.18;3.78;;;;;;;;;;4969514;28;20051;-74
2021/07/02 12:37:15;;;;;;;6.47;3.60;;;;;;;;;;4963138;28;20506;-66
2021/07/02 12:39:46;;;;;;;4.72;3.92;;;;;;;;;;4964925;28;20074;-72
2021/07/02 12:42:33;;;;;;;4.53;3.95;;;;;;;;;;4969861;28;20054;-71
2021/07/02 12:45:03;;;;;;;5.30;3.72;;;;;;;;;;4969536;28;20062;-71
2021/07/02 12:47:32;;;;;;;4.15;3.75;;;;;;;;;;4971634;28;20569;-73
2021/07/02 12:50:02;;;;;;;4.80;3.83;;;;;;;;;;4971642;28;20134;-65
2021/07/02 12:55:01;;;;;;;6.90;4.40;;;;;;;;;;4969673;28;20506;-64
2021/07/02 12:57:38;;;;;;;3.67;3.35;;;;;;;;;;4970068;28;20055;-64
2021/07/02 13:00:11;;;;;;;4.13;3.45;;;;;;;;;;4968992;28;20079;-65
2021/07/02 13:02:39;;;;;;;3.78;3.38;;;;;;;;;;4971185;28;20506;-64
2021/07/02 13:05:11;;;;;;;5.03;3.20;;;;;;;;;;4969162;28;20047;-65
2021/07/02 13:08:06;;;;;;;6.20;3.70;;;;;;;;;;4969428;28;20051;-65
2021/07/02 13:10:38;;;;;;;7.47;3.80;;;;;;;;;;4971707;28;20055;-65
2021/07/02 13:13:32;;;;;;;5.20;3.92;;;;;;;;;;4969460;28;20062;-65
2021/07/02 13:16:00;;;;;;;3.47;3.17;;;;;;;;;;4968548;28;20089;-65
2021/07/02 13:18:31;;;;;;;4.68;3.78;;;;;;;;;;4970369;28;20093;-65
2021/07/02 13:21:09;;;;;;;5.53;4.00;;;;;;;;;;4969316;28;20051;-65
2021/07/02 13:23:37;;;;;;;4.93;3.33;;;;;;;;;;4969163;28;20055;-65
2021/07/02 13:26:04;;;;;;;4.97;3.90;;;;;;;;;;4970300;28;20050;-65
2021/07/02 13:28:38;;;;;;;3.70;3.33;;;;;;;;;;4965412;28;20091;-67
2021/07/02 13:31:30;;;;;;;4.80;3.47;;;;;;;;;;4958079;28;20051;-65
2021/07/02 13:34:10;;;;;;;4.03;3.55;;;;;;;;;;4958765;28;20086;-65
2021/07/02 13:36:43;;;;;;;4.22;3.70;;;;;;;;;;4963480;28;20093;-65
2021/07/02 13:39:14;;;;;;;4.25;3.67;;;;;;;;;;4960915;28;20125;-65
2021/07/02 13:41:43;;;;;;;3.63;3.33;;;;;;;;;;4959522;28;20098;-65
2021/07/02 13:44:13;;;;;;;4.07;3.30;;;;;;;;;;4960625;28;20122;-65
2021/07/02 13:46:39;;;;;;;3.92;3.50;;;;;;;;;;4961754;28;20610;-65
2021/07/02 13:49:06;;;;;;;3.75;3.33;;;;;;;;;;4961424;28;20094;-65
2021/07/02 13:51:33;;;;;;;4.82;3.55;;;;;;;;;;4960022;28;20542;-65
2021/07/02 13:54:08;;;;;;;3.85;3.38;;;;;;;;;;4960629;28;20098;-65
2021/07/02 13:56:35;;;;;;;4.22;3.75;;;;;;;;;;4961322;28;20085;-65
2021/07/02 13:59:01;;;;;;;3.97;3.63;;;;;;;;;;4974101;28;20047;-65
2021/07/02 14:01:32;;;;;;;3.53;3.22;;;;;;;;;;4961037;28;20053;-65
2021/07/02 14:03:59;;;;;;;4.20;3.80;;;;;;;;;;4959412;28;20130;-65
2021/07/02 14:06:26;;;;;;;3.90;3.55;;;;;;;;;;4963480;28;20046;-65
2021/07/02 14:08:52;;;;;;;6.60;3.90;;;;;;;;;;4959360;28;20086;-65
2021/07/02 14:11:19;;;;;;;5.93;3.30;;;;;;;;;;4961113;28;20082;-65
2021/07/02 14:13:45;;;;;;;3.72;3.42;;;;;;;;;;4960399;28;20134;-65
2021/07/02 14:16:12;;;;;;;3.80;3.50;;;;;;;;;;4962211;28;20054;-65
2021/07/02 14:18:39;;;;;;;3.90;3.40;;;;;;;;;;4959520;28;20417;-65
2021/07/02 14:21:05;;;;;;;5.82;3.60;;;;;;;;;;4963961;28;20119;-65
2021/07/02 14:23:32;;;;;;;3.85;3.47;;;;;;;;;;4963558;28;20058;-64
2021/07/02 14:25:59;;;;;;;4.75;3.53;;;;;;;;;;4964751;28;20747;-65
2021/07/02 14:28:25;;;;;;;4.63;3.33;;;;;;;;;;4968482;28;20101;-65
2021/07/02 14:30:54;;;;;;;3.85;3.53;;;;;;;;;;4959288;28;20051;-65
2021/07/02 14:33:22;;;;;;;4.97;3.75;;;;;;;;;;4963001;28;20136;-65
2021/07/02 14:35:50;;;;;;;5.10;3.58;;;;;;;;;;4967689;28;20128;-65
2021/07/02 14:38:17;;;;;;;6.63;4.72;;;;;;;;;;4968610;28;20126;-65
2021/07/02 14:40:44;;;;;;;5.47;4.55;;;;;;;;;;4969363;28;20093;-65
2021/07/02 14:43:11;;;;;;;4.97;4.20;;;;;;;;;;4968223;28;20126;-65
2021/07/02 14:45:37;;;;;;;5.45;4.53;;;;;;;;;;4969075;28;20089;-65
2021/07/02 14:48:04;;;;;;;5.10;3.80;;;;;;;;;;4967495;28;20082;-65
2021/07/02 14:50:31;;;;;;;4.28;3.88;;;;;;;;;;4967957;28;20051;-65
2021/07/02 14:52:57;;;;;;;4.57;3.63;;;;;;;;;;4966325;28;20101;-64
2021/07/02 14:55:25;;;;;;;4.32;3.92;;;;;;;;;;4969441;28;20042;-65
2021/07/02 14:57:52;;;;;;;6.00;4.50;;;;;;;;;;4969614;28;20074;-65
2021/07/02 15:00:19;;;;;;;4.75;4.00;;;;;;;;;;4966447;28;20150;-65
2021/07/02 15:02:46;;;;;;;5.47;4.00;;;;;;;;;;4962877;28;20051;-65